This is the latest recevied weather packets stored in our database for station/object DG1GMY-13. If no packets are shown the sender has not sent any weather packets the latest 10 day(s).
| Time | Temp. | Humidity | Pressure | Rain* | Wind** | Luminosity | Snow |
|---|---|---|---|---|---|---|---|
| 1787522458 | 16.11° C | 52% | 1022.7 hPa | - | - | - | - |
| 1787520652 | 16.67° C | 50% | 1022.6 hPa | - | - | - | - |
| 1787518847 | 17.22° C | 50% | 1022.7 hPa | - | - | - | - |
| 1787517040 | 17.78° C | 49% | 1022.8 hPa | - | - | - | - |
| 1787515234 | 17.78° C | 49% | 1022.6 hPa | - | - | - | - |
| 1787513428 | 17.78° C | 50% | 1022.7 hPa | - | - | - | - |
| 1787511622 | 18.33° C | 50% | 1022.4 hPa | - | - | - | - |
| 1787509816 | 18.33° C | 51% | 1022.1 hPa | - | - | - | - |
| 1787508010 | 19.44° C | 49% | 1022.1 hPa | - | - | - | - |
| 1787506204 | 20.56° C | 45% | 1022.2 hPa | - | - | - | - |
| 1787504399 | 21.11° C | 44% | 1022.3 hPa | - | - | - | - |
| 1787502593 | 21.67° C | 44% | 1022.3 hPa | - | - | - | - |
| 1787500787 | 21.67° C | 44% | 1022.4 hPa | - | - | - | - |
| 1787498981 | 22.22° C | 43% | 1022.5 hPa | - | - | - | - |
| 1787497175 | 22.78° C | 43% | 1022.5 hPa | - | - | - | - |
| 1787495368 | 22.22° C | 47% | 1022.5 hPa | - | - | - | - |
| 1787493562 | 22.22° C | 47% | 1022.8 hPa | - | - | - | - |
| 1787491756 | 22.22° C | 49% | 1022.9 hPa | - | - | - | - |
| 1787489950 | 21.67° C | 50% | 1023.1 hPa | - | - | - | - |
| 1787488144 | 21.67° C | 50% | 1023.1 hPa | - | - | - | - |
| 1787486338 | 21.11° C | 48% | 1023.3 hPa | - | - | - | - |
| 1787484532 | 21.67° C | 49% | 1023.5 hPa | - | - | - | - |
| 1787482727 | 21.11° C | 53% | 1023.6 hPa | - | - | - | - |
| 1787480920 | 20° C | 57% | 1023.9 hPa | - | - | - | - |
| 1787479114 | 19.44° C | 61% | 1024.1 hPa | - | - | - | - |
* Rain since midnight (hover to see other rain measurements)
** Current wind speed in m/s (hover to see current wind gust speed)